createdAt,value
2019-01-27T00:01:19.351Z,-2.28
2019-01-27T00:03:51.168Z,-2.30
2019-01-27T00:06:22.805Z,-2.35
2019-01-27T00:08:55.412Z,-2.38
2019-01-27T00:11:28.418Z,-2.40
2019-01-27T00:14:01.500Z,-2.47
2019-01-27T00:16:33.969Z,-2.46
2019-01-27T00:19:10.233Z,-2.40
2019-01-27T00:21:42.811Z,-2.42
2019-01-27T00:24:33.396Z,-2.41
2019-01-27T00:27:05.099Z,-2.46
2019-01-27T00:29:36.842Z,-2.52
2019-01-27T00:32:08.591Z,-2.56
2019-01-27T00:34:41.038Z,-2.49
2019-01-27T00:37:12.863Z,-2.43
2019-01-27T00:39:44.528Z,-2.36
2019-01-27T00:42:16.752Z,-2.37
2019-01-27T00:44:48.603Z,-2.39
2019-01-27T00:47:20.339Z,-2.43
2019-01-27T00:49:52.981Z,-2.41
2019-01-27T00:52:25.032Z,-2.51
2019-01-27T00:54:57.264Z,-2.55
2019-01-27T00:57:29.460Z,-2.62
2019-01-27T01:00:02.527Z,-2.65
2019-01-27T01:02:35.408Z,-2.71
2019-01-27T01:05:08.347Z,-2.73
2019-01-27T01:07:40.514Z,-2.72
2019-01-27T01:10:17.817Z,-2.75
2019-01-27T01:12:49.720Z,-2.56
2019-01-27T01:15:22.118Z,-2.38
2019-01-27T01:17:55.698Z,-2.19
2019-01-27T01:20:29.904Z,-2.13
2019-01-27T01:23:02.313Z,-2.07
2019-01-27T01:25:34.180Z,-2.10
2019-01-27T01:28:06.113Z,-2.05
2019-01-27T01:30:38.062Z,-1.93
2019-01-27T01:33:09.761Z,-2.01
2019-01-27T01:35:41.644Z,-2.10
2019-01-27T01:38:13.446Z,-2.14
2019-01-27T01:40:45.409Z,-2.22
2019-01-27T01:43:18.866Z,-2.21
2019-01-27T01:45:52.489Z,-2.32
2019-01-27T01:48:24.303Z,-2.54
2019-01-27T01:50:57.313Z,-2.71
2019-01-27T01:53:29.288Z,-2.77
2019-01-27T01:56:01.111Z,-2.88
2019-01-27T01:58:33.769Z,-3.01
2019-01-27T02:01:08.074Z,-3.06
2019-01-27T02:03:39.732Z,-3.10
2019-01-27T02:06:11.633Z,-3.12
2019-01-27T02:08:43.588Z,-3.13
2019-01-27T02:11:15.484Z,-3.14
2019-01-27T02:13:47.481Z,-3.14
2019-01-27T02:16:19.041Z,-3.17
2019-01-27T02:18:51.466Z,-3.15
2019-01-27T02:21:23.064Z,-2.99
2019-01-27T02:23:54.925Z,-3.05
2019-01-27T02:26:26.558Z,-3.03
2019-01-27T02:28:58.767Z,-3.05
2019-01-27T02:31:30.604Z,-2.86
2019-01-27T02:34:02.419Z,-2.70
2019-01-27T02:36:34.126Z,-2.50
2019-01-27T02:39:09.416Z,-2.11
2019-01-27T02:41:43.136Z,-1.84
2019-01-27T02:44:15.059Z,-1.84
2019-01-27T02:46:46.536Z,-1.76
2019-01-27T02:49:18.530Z,-1.72
2019-01-27T02:51:50.268Z,-1.99
2019-01-27T02:54:22.048Z,-2.24
2019-01-27T02:56:53.555Z,-2.45
2019-01-27T02:59:25.239Z,-2.67
2019-01-27T03:01:57.033Z,-2.69
2019-01-27T03:04:30.147Z,-2.41
2019-01-27T03:07:17.470Z,-2.18
2019-01-27T03:09:49.527Z,-1.83
2019-01-27T03:12:21.242Z,-1.36
2019-01-27T03:14:53.038Z,-1.18
2019-01-27T03:17:24.939Z,-1.22
2019-01-27T03:19:56.929Z,-1.20
2019-01-27T03:22:29.638Z,-0.73
2019-01-27T03:25:01.463Z,-0.68
2019-01-27T03:27:34.219Z,-0.46
2019-01-27T03:30:09.678Z,-0.47
2019-01-27T03:32:41.341Z,-0.68
2019-01-27T03:35:14.303Z,-0.86
2019-01-27T03:37:45.883Z,-1.08
2019-01-27T03:40:19.036Z,-1.50
2019-01-27T03:42:51.312Z,-1.55
2019-01-27T03:45:23.701Z,-1.60
2019-01-27T03:47:55.380Z,-1.65
2019-01-27T03:50:27.155Z,-1.62
2019-01-27T03:53:17.664Z,-1.57
2019-01-27T03:55:49.349Z,-1.44
2019-01-27T03:58:21.230Z,-1.40
2019-01-27T04:00:52.934Z,-1.46
2019-01-27T04:03:24.565Z,-1.39
2019-01-27T04:05:56.170Z,-1.24
2019-01-27T04:08:27.717Z,-1.27
2019-01-27T04:10:59.151Z,-1.15
2019-01-27T04:13:31.612Z,-0.93
2019-01-27T04:16:03.425Z,-0.78
2019-01-27T04:18:35.129Z,-0.99
2019-01-27T04:21:07.021Z,-1.20
2019-01-27T04:23:38.644Z,-1.34
2019-01-27T04:26:11.203Z,-1.40
2019-01-27T04:28:42.978Z,-1.49
2019-01-27T04:31:15.004Z,-1.51
2019-01-27T04:33:47.304Z,-1.64
2019-01-27T04:36:18.984Z,-1.88
2019-01-27T04:38:50.607Z,-1.88
2019-01-27T04:41:22.515Z,-1.66
2019-01-27T04:43:54.189Z,-1.54
2019-01-27T04:46:26.056Z,-1.68
2019-01-27T04:48:57.603Z,-1.74
2019-01-27T04:51:29.311Z,-1.71
2019-01-27T04:54:01.246Z,-1.54
2019-01-27T04:56:33.251Z,-1.16
2019-01-27T04:59:05.640Z,-0.87
2019-01-27T05:01:37.256Z,-0.86
2019-01-27T05:04:19.152Z,-0.73
2019-01-27T05:06:50.907Z,-0.63
2019-01-27T05:09:22.467Z,-0.57
2019-01-27T05:11:54.100Z,-0.33
2019-01-27T05:14:26.094Z,-0.45
2019-01-27T05:16:57.714Z,-0.69
2019-01-27T05:19:30.949Z,-0.88
2019-01-27T05:22:02.638Z,-0.88
2019-01-27T05:24:35.619Z,-0.76
2019-01-27T05:27:07.503Z,-0.66
2019-01-27T05:29:39.585Z,-0.58
2019-01-27T05:32:11.371Z,-0.54
2019-01-27T05:34:43.216Z,-0.48
2019-01-27T05:37:15.080Z,-0.46
2019-01-27T05:39:46.712Z,-0.34
2019-01-27T05:42:18.357Z,-0.22
2019-01-27T05:44:49.912Z,-0.14
2019-01-27T05:47:21.658Z,-0.06
2019-01-27T05:49:53.484Z,0.02
2019-01-27T05:52:25.122Z,0.07
2019-01-27T05:54:56.789Z,0.13
2019-01-27T05:57:28.348Z,0.18
2019-01-27T05:59:59.911Z,0.23
2019-01-27T06:02:31.714Z,0.24
2019-01-27T06:05:03.664Z,0.27
2019-01-27T06:07:35.561Z,0.35
2019-01-27T06:10:08.648Z,0.44
2019-01-27T06:12:40.428Z,0.51
2019-01-27T06:15:14.584Z,0.66
2019-01-27T06:17:46.447Z,0.80
2019-01-27T06:20:19.582Z,0.92
2019-01-27T06:22:51.395Z,1.10
2019-01-27T06:25:26.040Z,1.20
2019-01-27T06:27:56.518Z,1.33
2019-01-27T06:30:28.909Z,1.48
2019-01-27T06:33:19.369Z,1.54
2019-01-27T06:35:51.084Z,1.66
2019-01-27T06:38:22.606Z,1.75
2019-01-27T06:40:55.565Z,1.81
2019-01-27T06:43:27.310Z,1.78
2019-01-27T06:45:59.211Z,1.79
2019-01-27T06:48:30.954Z,1.78
2019-01-27T06:51:03.242Z,1.70
2019-01-27T06:53:34.841Z,1.59
2019-01-27T06:56:06.761Z,1.63
2019-01-27T06:58:56.185Z,1.74
2019-01-27T07:01:56.000Z,1.83
2019-01-27T07:04:35.426Z,2.06
2019-01-27T07:07:28.480Z,2.11
2019-01-27T07:10:18.629Z,2.17
2019-01-27T07:13:12.034Z,2.42
2019-01-27T07:15:59.412Z,2.58
2019-01-27T07:19:05.285Z,2.73
2019-01-27T07:21:49.314Z,2.64
2019-01-27T07:24:45.678Z,2.72
2019-01-27T07:27:36.696Z,2.80
2019-01-27T07:30:30.122Z,2.83
2019-01-27T07:33:23.423Z,2.96
2019-01-27T07:36:23.165Z,3.08
2019-01-27T07:39:05.966Z,3.22
2019-01-27T07:41:48.519Z,3.47
2019-01-27T07:44:54.447Z,3.59
2019-01-27T07:47:47.573Z,3.69
2019-01-27T07:50:50.349Z,3.79
2019-01-27T07:53:44.952Z,3.96
2019-01-27T07:56:34.309Z,3.92
2019-01-27T07:59:21.833Z,4.04
2019-01-27T08:02:12.523Z,4.15
2019-01-27T08:05:03.006Z,4.13
2019-01-27T08:07:50.643Z,4.31
2019-01-27T08:10:44.098Z,4.38
2019-01-27T08:13:38.275Z,4.28
2019-01-27T08:16:28.847Z,4.28
2019-01-27T08:19:09.845Z,4.11
2019-01-27T08:22:05.058Z,3.73
2019-01-27T08:24:54.313Z,3.71
2019-01-27T08:27:47.576Z,3.64
2019-01-27T08:30:29.481Z,3.65
2019-01-27T08:33:22.724Z,3.66
2019-01-27T08:36:16.315Z,3.79
2019-01-27T08:38:58.824Z,3.80
2019-01-27T08:41:52.785Z,4.07
2019-01-27T08:44:59.130Z,4.17
2019-01-27T08:47:31.485Z,4.04
2019-01-27T08:50:03.696Z,4.23
2019-01-27T08:52:38.076Z,4.39
2019-01-27T08:55:12.134Z,4.53
2019-01-27T08:57:44.123Z,4.59
2019-01-27T09:00:23.761Z,4.68
2019-01-27T09:03:17.254Z,4.80
2019-01-27T09:06:11.419Z,4.87
2019-01-27T09:09:11.856Z,4.99
2019-01-27T09:12:04.034Z,5.14
2019-01-27T09:14:54.766Z,5.33
2019-01-27T09:17:46.435Z,5.52
2019-01-27T09:20:47.408Z,5.80
2019-01-27T09:23:35.137Z,6.44
2019-01-27T09:26:17.347Z,7.03
2019-01-27T09:29:08.064Z,7.11
2019-01-27T09:32:10.690Z,7.24
2019-01-27T09:34:54.573Z,7.29
2019-01-27T09:37:51.070Z,7.47
2019-01-27T09:40:39.379Z,7.46
2019-01-27T09:43:30.048Z,7.59
2019-01-27T09:46:17.338Z,7.58
2019-01-27T09:49:09.054Z,7.37
2019-01-27T09:52:00.178Z,7.12
2019-01-27T09:54:39.706Z,6.84
2019-01-27T09:57:29.603Z,6.62
2019-01-27T10:00:31.348Z,6.64
2019-01-27T10:03:25.372Z,6.89
2019-01-27T10:06:12.396Z,6.67
2019-01-27T10:09:06.831Z,6.80
2019-01-27T10:11:51.513Z,6.87
2019-01-27T10:14:42.071Z,6.98
2019-01-27T10:17:39.799Z,7.31
2019-01-27T10:20:33.781Z,7.27
2019-01-27T10:23:23.564Z,7.22
2019-01-27T10:26:17.325Z,7.22
2019-01-27T10:29:11.535Z,7.14
2019-01-27T10:32:17.864Z,7.13
2019-01-27T10:35:15.731Z,7.08
2019-01-27T10:37:53.616Z,7.03
2019-01-27T10:40:59.338Z,7.01
2019-01-27T10:43:45.016Z,7.21
2019-01-27T10:46:36.008Z,7.41
2019-01-27T10:49:33.981Z,7.34
2019-01-27T10:52:28.155Z,7.50
2019-01-27T10:55:25.719Z,7.57
2019-01-27T10:58:16.429Z,7.87
2019-01-27T11:01:05.762Z,7.93
2019-01-27T11:03:47.193Z,8.15
2019-01-27T11:06:35.753Z,7.96
2019-01-27T11:09:28.878Z,8.00
2019-01-27T11:12:32.136Z,8.16
2019-01-27T11:15:28.584Z,8.07
2019-01-27T11:18:26.415Z,7.83
2019-01-27T11:21:29.296Z,7.91
2019-01-27T11:24:17.645Z,7.94
2019-01-27T11:27:21.532Z,8.25
2019-01-27T11:30:02.788Z,8.28
2019-01-27T11:32:53.606Z,8.34
2019-01-27T11:35:45.016Z,8.39
2019-01-27T11:38:35.186Z,8.30
2019-01-27T11:41:39.340Z,8.14
2019-01-27T11:44:39.116Z,8.25
2019-01-27T11:47:21.745Z,8.44
2019-01-27T11:50:05.073Z,8.73
2019-01-27T11:52:39.988Z,9.23
2019-01-27T11:55:12.650Z,9.53
2019-01-27T11:57:44.847Z,9.80
2019-01-27T12:00:21.962Z,9.90
2019-01-27T12:02:54.137Z,9.71
2019-01-27T12:05:26.120Z,9.53
2019-01-27T12:07:58.348Z,9.42
2019-01-27T12:10:30.706Z,9.41
2019-01-27T12:13:02.870Z,9.43
2019-01-27T12:15:34.680Z,9.49
2019-01-27T12:18:06.733Z,9.49
2019-01-27T12:20:38.950Z,9.30
2019-01-27T12:23:15.600Z,9.32
2019-01-27T12:25:48.275Z,9.23
2019-01-27T12:28:20.672Z,9.20
2019-01-27T12:30:53.276Z,9.24
2019-01-27T12:33:25.516Z,9.55
2019-01-27T12:35:57.741Z,9.52
2019-01-27T12:38:29.864Z,9.32
2019-01-27T12:41:02.829Z,9.21
2019-01-27T12:43:34.850Z,9.18
2019-01-27T12:46:07.016Z,9.15
2019-01-27T12:48:39.571Z,9.01
2019-01-27T12:51:12.915Z,8.93
2019-01-27T12:53:44.737Z,8.76
2019-01-27T12:56:17.805Z,8.59
2019-01-27T12:58:49.779Z,8.56
2019-01-27T13:01:21.800Z,8.59
2019-01-27T13:03:53.563Z,8.74
2019-01-27T13:06:25.294Z,8.91
2019-01-27T13:08:58.906Z,9.06
2019-01-27T13:11:30.844Z,9.10
2019-01-27T13:14:05.199Z,9.17
2019-01-27T13:16:38.329Z,9.30
2019-01-27T13:19:10.649Z,9.28
2019-01-27T13:21:42.313Z,9.42
2019-01-27T13:24:15.401Z,9.44
2019-01-27T13:26:48.744Z,9.57
2019-01-27T13:29:20.562Z,9.87
2019-01-27T13:31:52.695Z,9.87
2019-01-27T13:34:24.465Z,9.86
2019-01-27T13:36:56.253Z,9.78
2019-01-27T13:39:28.503Z,9.85
2019-01-27T13:42:01.719Z,9.97
2019-01-27T13:44:35.252Z,10.12
2019-01-27T13:47:07.292Z,10.20
2019-01-27T13:49:39.101Z,10.29
2019-01-27T13:52:12.148Z,10.44
2019-01-27T13:54:44.998Z,10.43
2019-01-27T13:57:16.822Z,10.42
2019-01-27T13:59:48.737Z,10.48
2019-01-27T14:02:20.517Z,10.50
2019-01-27T14:04:52.467Z,10.51
2019-01-27T14:07:24.887Z,10.51
2019-01-27T14:09:56.619Z,10.57
2019-01-27T14:12:28.459Z,10.58
2019-01-27T14:15:00.551Z,10.60
2019-01-27T14:17:33.504Z,10.58
2019-01-27T14:20:08.561Z,10.57
2019-01-27T14:22:40.797Z,10.66
2019-01-27T14:25:15.082Z,10.49
2019-01-27T14:27:47.798Z,10.27
2019-01-27T14:30:26.532Z,10.22
2019-01-27T14:32:58.584Z,10.21
2019-01-27T14:35:31.667Z,10.13
2019-01-27T14:38:04.126Z,10.16
2019-01-27T14:40:36.620Z,10.08
2019-01-27T14:43:08.592Z,10.09
2019-01-27T14:45:40.945Z,10.11
2019-01-27T14:48:13.290Z,10.00
2019-01-27T14:50:48.898Z,9.78
2019-01-27T14:53:21.268Z,9.57
2019-01-27T14:55:53.535Z,9.43
2019-01-27T14:58:26.712Z,9.26
2019-01-27T15:00:58.711Z,9.25
2019-01-27T15:03:30.828Z,9.17
2019-01-27T15:06:03.679Z,9.22
2019-01-27T15:08:35.626Z,9.19
2019-01-27T15:11:08.188Z,9.22
2019-01-27T15:13:40.181Z,9.19
2019-01-27T15:16:12.502Z,9.29
2019-01-27T15:18:44.405Z,9.31
2019-01-27T15:21:28.596Z,9.37
2019-01-27T15:24:00.425Z,9.47
2019-01-27T15:26:32.526Z,9.36
2019-01-27T15:29:05.150Z,9.27
2019-01-27T15:31:39.436Z,9.30
2019-01-27T15:34:31.647Z,9.31
2019-01-27T15:37:03.610Z,9.10
2019-01-27T15:39:35.576Z,9.08
2019-01-27T15:42:08.329Z,9.09
2019-01-27T15:44:40.721Z,9.04
2019-01-27T15:47:12.567Z,8.93
2019-01-27T15:49:44.678Z,8.91
2019-01-27T15:52:16.695Z,8.81
2019-01-27T15:54:48.718Z,8.75
2019-01-27T15:57:20.662Z,8.63
2019-01-27T15:59:52.619Z,8.70
2019-01-27T16:02:29.199Z,8.62
2019-01-27T16:05:02.737Z,8.65
2019-01-27T16:07:34.703Z,8.62
2019-01-27T16:10:10.076Z,8.68
2019-01-27T16:12:42.439Z,8.67
2019-01-27T16:15:19.043Z,8.63
2019-01-27T16:17:51.130Z,8.53
2019-01-27T16:20:24.249Z,8.49
2019-01-27T16:23:17.178Z,8.40
2019-01-27T16:25:49.071Z,8.34
2019-01-27T16:28:21.969Z,8.37
2019-01-27T16:31:08.063Z,8.46
2019-01-27T16:34:09.384Z,8.33
2019-01-27T16:36:42.301Z,8.26
2019-01-27T16:39:15.760Z,8.26
2019-01-27T16:41:48.950Z,8.32
2019-01-27T16:44:22.552Z,8.31
2019-01-27T16:46:54.521Z,8.29
2019-01-27T16:49:27.261Z,8.35
2019-01-27T16:52:02.855Z,8.36
2019-01-27T16:54:34.650Z,8.29
2019-01-27T16:57:07.038Z,8.29
2019-01-27T16:59:39.276Z,8.30
2019-01-27T17:02:12.049Z,8.37
2019-01-27T17:04:44.247Z,8.32
2019-01-27T17:07:16.141Z,8.34
2019-01-27T17:09:49.498Z,8.36
2019-01-27T17:12:21.446Z,8.38
2019-01-27T17:14:53.423Z,8.39
2019-01-27T17:17:25.477Z,8.40
2019-01-27T17:20:02.491Z,8.35
2019-01-27T17:22:32.444Z,8.35
2019-01-27T17:25:04.890Z,8.34
2019-01-27T17:27:37.362Z,8.34
2019-01-27T17:30:13.584Z,8.24
2019-01-27T17:32:47.104Z,8.19
2019-01-27T17:35:20.123Z,8.16
2019-01-27T17:37:54.855Z,8.12
2019-01-27T17:40:27.113Z,8.23
2019-01-27T17:43:00.356Z,8.14
2019-01-27T17:45:32.995Z,8.15
2019-01-27T17:48:05.715Z,8.19
2019-01-27T17:50:39.951Z,8.17
2019-01-27T17:53:12.439Z,8.23
2019-01-27T17:55:45.494Z,8.28
2019-01-27T17:59:11.187Z,8.40
2019-01-27T18:01:54.055Z,8.47
2019-01-27T18:04:58.139Z,8.51
2019-01-27T18:07:53.529Z,8.60
2019-01-27T18:10:49.160Z,8.56
2019-01-27T18:13:25.877Z,8.48
2019-01-27T18:16:00.198Z,8.55
2019-01-27T18:18:32.577Z,8.57
2019-01-27T18:21:04.554Z,8.48
2019-01-27T18:23:36.844Z,8.38
2019-01-27T18:26:09.724Z,8.40
2019-01-27T18:28:41.967Z,8.42
2019-01-27T18:31:14.618Z,8.39
2019-01-27T18:33:47.781Z,8.42
2019-01-27T18:36:20.008Z,8.42
2019-01-27T18:38:52.096Z,8.42
2019-01-27T18:41:24.422Z,8.44
2019-01-27T18:43:56.582Z,8.40
2019-01-27T18:46:28.670Z,8.42
2019-01-27T18:49:01.059Z,8.49
2019-01-27T18:51:34.985Z,8.38
2019-01-27T18:54:32.305Z,8.23
2019-01-27T18:57:18.703Z,8.33
2019-01-27T19:00:18.791Z,8.25
2019-01-27T19:03:14.533Z,8.36
2019-01-27T19:06:03.844Z,8.23
2019-01-27T19:08:57.515Z,8.25
2019-01-27T19:11:50.176Z,8.20
2019-01-27T19:14:59.188Z,8.32
2019-01-27T19:17:50.786Z,8.21
2019-01-27T19:20:44.453Z,8.15
2019-01-27T19:23:25.398Z,8.01
2019-01-27T19:26:26.150Z,8.03
2019-01-27T19:29:28.756Z,7.96
2019-01-27T19:32:17.903Z,8.00
2019-01-27T19:35:07.678Z,8.18
2019-01-27T19:38:10.515Z,8.34
2019-01-27T19:41:03.583Z,8.47
2019-01-27T19:43:51.055Z,8.51
2019-01-27T19:46:40.866Z,8.28
2019-01-27T19:49:41.484Z,8.23
2019-01-27T19:52:43.563Z,8.24
2019-01-27T19:55:53.118Z,8.36
2019-01-27T19:58:39.676Z,8.55
2019-01-27T20:01:27.190Z,8.68
2019-01-27T20:04:16.480Z,8.77
2019-01-27T20:07:10.006Z,8.67
2019-01-27T20:10:05.018Z,8.75
2019-01-27T20:12:44.460Z,8.67
2019-01-27T20:15:28.711Z,8.69
2019-01-27T20:18:20.218Z,8.74
2019-01-27T20:20:59.823Z,8.66
2019-01-27T20:23:51.991Z,8.75
2019-01-27T20:26:33.546Z,8.91
2019-01-27T20:29:43.894Z,8.95
2019-01-27T20:32:34.917Z,8.89
2019-01-27T20:35:22.289Z,8.96
2019-01-27T20:38:16.134Z,8.93
2019-01-27T20:41:13.079Z,8.86
2019-01-27T20:44:16.143Z,8.88
2019-01-27T20:47:09.911Z,8.77
2019-01-27T20:50:10.719Z,8.60
2019-01-27T20:52:53.320Z,8.70
2019-01-27T20:55:34.424Z,8.69
2019-01-27T20:58:15.554Z,8.68
2019-01-27T21:01:09.046Z,8.69
2019-01-27T21:04:04.650Z,8.74
2019-01-27T21:06:54.869Z,8.85
2019-01-27T21:09:37.702Z,8.98
2019-01-27T21:12:22.845Z,9.10
2019-01-27T21:15:20.890Z,9.08
2019-01-27T21:18:11.518Z,9.12
2019-01-27T21:20:43.720Z,9.18
2019-01-27T21:23:19.399Z,9.15
2019-01-27T21:25:51.525Z,8.97
2019-01-27T21:28:24.416Z,8.99
2019-01-27T21:30:56.506Z,9.07
2019-01-27T21:33:28.866Z,9.05
2019-01-27T21:36:02.286Z,9.09
2019-01-27T21:38:35.074Z,9.09
2019-01-27T21:41:07.920Z,9.12
2019-01-27T21:43:40.779Z,9.05
2019-01-27T21:46:13.655Z,9.15
2019-01-27T21:48:45.991Z,9.05
2019-01-27T21:51:19.176Z,9.03
2019-01-27T21:53:52.345Z,9.02
2019-01-27T21:56:24.025Z,8.97
2019-01-27T21:58:56.482Z,8.93
2019-01-27T22:01:29.679Z,9.07
2019-01-27T22:04:01.904Z,8.93
2019-01-27T22:06:34.155Z,8.89
2019-01-27T22:09:08.817Z,8.84
2019-01-27T22:11:40.669Z,8.80
2019-01-27T22:14:15.622Z,8.71
2019-01-27T22:16:47.579Z,8.69
2019-01-27T22:19:19.954Z,8.80
2019-01-27T22:21:51.967Z,8.68
2019-01-27T22:24:24.217Z,8.61
2019-01-27T22:26:56.156Z,8.67
2019-01-27T22:29:28.036Z,8.66
2019-01-27T22:32:00.413Z,8.65
2019-01-27T22:34:34.616Z,8.81
2019-01-27T22:37:06.917Z,8.88
2019-01-27T22:39:39.335Z,8.90
2019-01-27T22:42:11.842Z,8.88
2019-01-27T22:44:43.746Z,8.96
2019-01-27T22:47:15.990Z,9.04
2019-01-27T22:49:48.606Z,9.02
2019-01-27T22:52:21.271Z,8.95
2019-01-27T22:54:54.277Z,9.07
2019-01-27T22:57:26.533Z,9.05
2019-01-27T23:00:03.445Z,9.05
2019-01-27T23:02:36.344Z,8.91
2019-01-27T23:05:09.861Z,8.81
2019-01-27T23:07:43.847Z,8.95
2019-01-27T23:10:16.930Z,8.77
2019-01-27T23:12:48.797Z,8.70
2019-01-27T23:15:21.437Z,8.64
2019-01-27T23:17:53.770Z,8.68
2019-01-27T23:20:26.801Z,8.74
2019-01-27T23:23:00.503Z,8.97
2019-01-27T23:25:35.334Z,9.08
2019-01-27T23:28:07.666Z,9.08
2019-01-27T23:30:41.256Z,9.11
2019-01-27T23:33:13.728Z,9.12
2019-01-27T23:35:46.941Z,9.09
2019-01-27T23:38:19.213Z,8.97
2019-01-27T23:40:52.371Z,8.96
2019-01-27T23:43:24.702Z,9.01
2019-01-27T23:46:00.671Z,8.88
2019-01-27T23:48:33.274Z,8.97
2019-01-27T23:51:09.788Z,9.14
2019-01-27T23:53:42.468Z,9.01
2019-01-27T23:56:15.355Z,9.14
2019-01-27T23:58:47.594Z,9.15
